^^
Station Historical Data
 
Daily Summary for February 23, 2018 Units:  English    Metric   Both
« Previous Day
Next Day »
Daily Weekly Monthly Yearly Custom
  Current: High: Low: Average:
Temperature: 49.6 °F 66.7 °F 33.4 °F 50.4 °F
Dew Point: 28.6 °F 30.9 °F 11.7 °F 26.1 °F
Humidity: 44 % 77 % 14 % 45 %
Wind Speed: 1.2 mph 16.1 mph 0 mph 4.3 mph
Wind Gust: 1.2 mph 16.1 mph - -
Wind:NNW - - SSE
Pressure: 30.1 in 30.2 in 30 in -
Precipitation: 0 in      
Historical Graphs
 
 
Tabular Data for February 23, 2018
Time Temperature Dew Point Pressure Wind Wind Speed Wind Gust Humidity Rainfall Rate (Hourly) solar Conditions
00:00 40.8 °F 28.8 °F 30.2 in ENE 2.3 mph 2.3 mph 62 % 0 in 0.0 W/m2 CLR
00:05 40.8 °F 28.8 °F 30.2 in ENE 1.2 mph 1.2 mph 62 % 0 in 0.0 W/m2 CLR
00:10 40.6 °F 29.1 °F 30.2 in ENE 1.2 mph 1.2 mph 63 % 0 in 0.0 W/m2 CLR
00:15 40.6 °F 28.9 °F 30.2 in ENE 1.2 mph 1.2 mph 63 % 0 in 0.0 W/m2 CLR
00:20 40.6 °F 28.9 °F 30.1 in ENE 2.3 mph 2.3 mph 63 % 0 in 0.0 W/m2 CLR
00:25 40.5 °F 28.9 °F 30.2 in ENE 1.2 mph 1.2 mph 63 % 0 in 0.0 W/m2 CLR
00:30 40.5 °F 28.8 °F 30.1 in ENE 1.2 mph 1.2 mph 63 % 0 in 0.0 W/m2 CLR
00:35 40.3 °F 29.1 °F 30.1 in Calm     64 % 0 in 0.0 W/m2 CLR
00:40 40.3 °F 28.9 °F 30.1 in Calm     64 % 0 in 0.0 W/m2 CLR
00:45 40.3 °F 28.9 °F 30.1 in Calm     64 % 0 in 0.0 W/m2 CLR
00:50 39.9 °F 28.8 °F 30.1 in ENE 1.2 mph   64 % 0 in 0.0 W/m2 CLR
00:55 39.7 °F 28.6 °F 30.1 in ENE 3.5 mph 3.5 mph 64 % 0 in 0.0 W/m2 CLR
01:01 39.6 °F 28.8 °F 30.1 in ENE 2.3 mph 2.3 mph 65 % 0 in 0.0 W/m2 CLR
01:06 39.4 °F 28.6 °F 30.1 in ENE 2.3 mph 2.3 mph 65 % 0 in 0.0 W/m2 CLR
01:11 39.4 °F 28.9 °F 30.1 in ENE 3 mph 3 mph 66 % 0 in 0.0 W/m2 CLR
01:16 39.2 °F 28.8 °F 30.1 in ENE 1.2 mph 1.2 mph 66 % 0 in 0.0 W/m2 CLR
01:21 39 °F 28.8 °F 30.1 in ENE 2.3 mph 2.3 mph 66 % 0 in 0.0 W/m2 CLR
01:26 39 °F 28.8 °F 30.1 in ENE 1.2 mph 1.2 mph 66 % 0 in 0.0 W/m2 CLR
01:31 38.8 °F 28.9 °F 30.1 in ENE 1.2 mph 1.2 mph 67 % 0 in 0.0 W/m2 CLR
01:36 38.8 °F 28.9 °F 30.1 in ENE 1.2 mph 1.2 mph 67 % 0 in 0.0 W/m2 CLR
01:41 38.8 °F 28.8 °F 30.1 in Calm     67 % 0 in 0.0 W/m2 CLR
01:46 38.7 °F 28.9 °F 30.1 in ENE 1.2 mph 1.2 mph 68 % 0 in 0.0 W/m2 CLR
01:51 38.5 °F 28.9 °F 30.1 in Calm     68 % 0 in 0.0 W/m2 CLR
01:56 38.5 °F 28.8 °F 30.1 in ENE 1.2 mph 1.2 mph 68 % 0 in 0.0 W/m2 CLR
02:01 38.1 °F 28.6 °F 30.1 in ENE 2.3 mph 2.3 mph 68 % 0 in 0.0 W/m2 CLR
02:06 38.1 °F 28.6 °F 30.1 in Calm     68 % 0 in 0.0 W/m2 CLR
02:11 38.1 °F 28.8 °F 30.1 in Calm     69 % 0 in 0.0 W/m2 CLR
02:16 38.1 °F 28.8 °F 30.1 in ENE 1.2 mph   69 % 0 in 0.0 W/m2 CLR
02:22 37.9 °F 28.6 °F 30.1 in ENE 1.2 mph   69 % 0 in 0.0 W/m2 CLR
02:27 37.8 °F 28.4 °F 30.1 in ENE 2.3 mph 2.3 mph 69 % 0 in 0.0 W/m2 CLR
02:32 37.6 °F 28.8 °F 30.1 in ENE 1.2 mph 1.2 mph 70 % 0 in 0.0 W/m2 CLR
02:37 37.6 °F 28.6 °F 30.1 in ENE 1.2 mph 1.2 mph 70 % 0 in 0.0 W/m2 CLR
02:42 37.4 °F 28.9 °F 30.1 in ENE 2.3 mph 2.3 mph 71 % 0 in 0.0 W/m2 CLR
02:47 37.2 °F 28.8 °F 30.1 in ENE 2.3 mph 2.3 mph 71 % 0 in 0.0 W/m2 CLR
02:52 37.2 °F 28.8 °F 30.1 in ENE 1.2 mph   71 % 0 in 0.0 W/m2 CLR
02:57 37 °F 28.6 °F 30.1 in ENE 1.2 mph 1.2 mph 71 % 0 in 0.0 W/m2 CLR
03:02 37 °F 28.6 °F 30.1 in Calm     71 % 0 in 0.0 W/m2 CLR
03:07 37 °F 28.6 °F 30.1 in ENE 1 mph 1 mph 71 % 0 in 0.0 W/m2 CLR
03:12 36.9 °F 28.8 °F 30.1 in ENE 1.2 mph   72 % 0 in 0.0 W/m2 CLR
03:17 36.9 °F 28.6 °F 30.1 in Calm   0.2 mph 72 % 0 in 0.0 W/m2 CLR
03:22 36.7 °F 28.4 °F 30.1 in Calm     72 % 0 in 0.0 W/m2 CLR
03:27 36.5 °F 28.2 °F 30.1 in ENE 1.2 mph 1.2 mph 72 % 0 in 0.0 W/m2 CLR
03:32 36.3 °F 28.6 °F 30.1 in ENE 2.3 mph   73 % 0 in 0.0 W/m2 CLR
03:38 36.3 °F 28.6 °F 30.1 in ENE 1.2 mph 1.2 mph 73 % 0 in 0.0 W/m2 CLR
03:43 36.3 °F 28.6 °F 30.1 in ENE 1.2 mph 1.2 mph 73 % 0 in 0.0 W/m2 CLR
03:48 36.1 °F 28.4 °F 30.1 in ENE 2.3 mph 2.3 mph 73 % 0 in 0.0 W/m2 CLR
03:53 36.1 °F 28.2 °F 30.1 in ENE 2 mph 2 mph 73 % 0 in 0.0 W/m2 CLR
03:58 36.1 °F 28.2 °F 30.1 in ENE 2.3 mph 2.3 mph 73 % 0 in 0.0 W/m2 CLR
04:03 36.1 °F 28.2 °F 30.1 in ENE 2.3 mph 2.3 mph 73 % 0 in 0.0 W/m2 CLR
04:08 36.1 °F 28.2 °F 30.1 in ENE 2.3 mph 2.3 mph 73 % 0 in 0.0 W/m2 CLR
04:13 36.1 °F 27.9 °F 30.1 in ENE 1.2 mph 1.2 mph 72 % 0 in 0.0 W/m2 CLR
04:18 36.1 °F 27.9 °F 30.1 in Calm     72 % 0 in 0.0 W/m2 CLR
04:23 36.1 °F 27.9 °F 30.1 in ENE 1.2 mph 1.2 mph 72 % 0 in 0.0 W/m2 CLR
04:28 36 °F 27.9 °F 30.1 in ENE 1.2 mph   72 % 0 in 0.0 W/m2 CLR
04:33 36 °F 27.7 °F 30.1 in ENE 2.3 mph 2.3 mph 72 % 0 in 0.0 W/m2 CLR
04:38 35.8 °F 27.9 °F 30.1 in ENE 1.2 mph 1.2 mph 73 % 0 in 0.0 W/m2 CLR
04:43 35.8 °F 27.9 °F 30.1 in Calm     73 % 0 in 0.0 W/m2 CLR
04:48 35.6 °F 27.9 °F 30.1 in ENE 1.2 mph 1.2 mph 73 % 0 in 0.0 W/m2 CLR
04:53 35.4 °F 28 °F 30.1 in ENE 1.2 mph 1.2 mph 74 % 0 in 0.0 W/m2 CLR
04:58 35.2 °F 27.9 °F 30.1 in ENE 1 mph 1 mph 74 % 0 in 0.0 W/m2 CLR
05:04 35.2 °F 27.7 °F 30.1 in Calm     74 % 0 in 0.0 W/m2 CLR
05:09 35.1 °F 27.7 °F 30.1 in ENE 2.3 mph 2.3 mph 74 % 0 in 0.0 W/m2 CLR
05:14 35.1 °F 27.5 °F 30.1 in ENE 2.3 mph   74 % 0 in 0.0 W/m2 CLR
05:19 35.1 °F 27.5 °F 30.1 in ENE 1.2 mph   74 % 0 in 0.0 W/m2 CLR
05:24 35.1 °F 27.5 °F 30.1 in Calm     74 % 0 in 0.0 W/m2 CLR
05:29 34.9 °F 27.5 °F 30.1 in Calm     74 % 0 in 0.0 W/m2 CLR
05:34 34.9 °F 27.3 °F 30.1 in Calm     74 % 0 in 0.0 W/m2 CLR
05:39 34.7 °F 27.7 °F 30.1 in Calm     75 % 0 in 0.0 W/m2 CLR
05:44 34.5 °F 27.1 °F 30.1 in ENE 1.2 mph   74 % 0 in 0.0 W/m2 CLR
05:49 34.5 °F 27.5 °F 30.1 in Calm     75 % 0 in 0.0 W/m2 CLR
05:54 34.3 °F 27.3 °F 30.1 in ENE 1.2 mph 1.2 mph 75 % 0 in 0.0 W/m2 CLR
05:59 34.3 °F 27.1 °F 30.1 in ENE 1.2 mph 1.2 mph 75 % 0 in 0.0 W/m2 CLR
06:04 34.2 °F 27.1 °F 30.1 in ENE 2.3 mph 2.3 mph 75 % 0 in 0.0 W/m2 CLR
06:09 34.2 °F 27.1 °F 30.1 in Calm     75 % 0 in 0.0 W/m2 CLR
06:14 34.2 °F 27 °F 30.1 in Calm     75 % 0 in 0.0 W/m2 CLR
06:19 34.2 °F 27.3 °F 30.1 in ENE 1.2 mph 1.2 mph 76 % 0 in 0.0 W/m2 CLR
06:24 34 °F 27.1 °F 30.1 in ENE 1.2 mph 1.2 mph 76 % 0 in 0.0 W/m2 CLR
06:29 34 °F 27.1 °F 30.1 in ENE 1.2 mph 1.2 mph 76 % 0 in 0.0 W/m2 CLR
06:34 33.8 °F 27 °F 30.1 in ENE 1.2 mph 1.2 mph 76 % 0 in 0.0 W/m2 CLR
06:39 33.8 °F 27.3 °F 30.1 in ENE 1.2 mph 1.2 mph 77 % 0 in 0.0 W/m2 CLR
06:44 33.8 °F 27.3 °F 30.1 in Calm     77 % 0 in 0.0 W/m2 CLR
06:50 33.6 °F 27.3 °F 30.1 in Calm     77 % 0 in 0.0 W/m2 CLR
06:55 33.6 °F 27.1 °F 30.1 in Calm     77 % 0 in 0.0 W/m2 CLR
07:00 33.6 °F 27.1 °F 30.1 in Calm     77 % 0 in 5.0 W/m2 CLR
07:05 33.6 °F 27.1 °F 30.1 in Calm     77 % 0 in 7.0 W/m2 CLR
07:10 33.4 °F 27.1 °F 30.1 in Calm     77 % 0 in 11.0 W/m2 CLR
07:15 33.4 °F 27.1 °F 30.1 in Calm     77 % 0 in 14.0 W/m2 CLR
07:20 33.6 °F 27.1 °F 30.1 in Calm     77 % 0 in 21.0 W/m2 CLR
07:25 33.6 °F 27.3 °F 30.1 in Calm     77 % 0 in 33.0 W/m2 CLR
07:30 34 °F 27.5 °F 30.1 in NE 3.5 mph 3.5 mph 77 % 0 in 62.0 W/m2 CLR
07:35 34.5 °F 28 °F 30.1 in NE 2.3 mph 2.3 mph 77 % 0 in 76.0 W/m2 CLR
07:40 35.1 °F 28.2 °F 30.1 in NE 1.2 mph   76 % 0 in 95.0 W/m2 CLR
07:45 35.8 °F 28.9 °F 30.2 in NE 1.2 mph 1.2 mph 76 % 0 in 116.0 W/m2 CLR
07:50 36.3 °F 29.1 °F 30.1 in NE 1.2 mph 1.2 mph 75 % 0 in 139.0 W/m2 CLR
07:55 37 °F 29.1 °F 30.1 in Calm     73 % 0 in 162.0 W/m2 CLR
08:00 37.9 °F 29.3 °F 30.1 in Calm     71 % 0 in 185.0 W/m2 CLR
08:03 38.5 °F 29.8 °F 30.1 in NE 1.2 mph 1.2 mph 71 % 0 in 197.0 W/m2 CLR
08:05 38.8 °F 29.8 °F 30.1 in Calm     70 % 0 in 209.0 W/m2 CLR
08:11 39.7 °F 30 °F 30.1 in Calm   0.8 mph 68 % 0 in 234.0 W/m2 CLR
08:16 40.8 °F 30 °F 30.1 in East 1.2 mph 1.2 mph 65 % 0 in 257.0 W/m2 CLR
08:21 41.7 °F 29.7 °F 30.1 in East 2.3 mph 2.3 mph 62 % 0 in 278.0 W/m2 CLR
08:26 42.8 °F 29.8 °F 30.1 in East 5 mph 5 mph 60 % 0 in 295.0 W/m2 CLR
08:31 43.5 °F 30.2 °F 30.1 in ENE 3.5 mph 3.5 mph 59 % 0 in 313.0 W/m2 CLR
08:36 44.2 °F 30.4 °F 30.1 in ENE 2.3 mph 2.3 mph 58 % 0 in 330.0 W/m2 CLR
08:41 44.8 °F 30.6 °F 30.1 in ENE 2.3 mph 2.3 mph 57 % 0 in 345.0 W/m2 CLR
08:46 45.3 °F 30.6 °F 30.1 in East 4.6 mph 4.6 mph 56 % 0 in 362.0 W/m2 CLR
08:51 45.7 °F 30.9 °F 30.1 in ESE 3.5 mph 3.5 mph 56 % 0 in 380.0 W/m2 CLR
08:56 46.2 °F 30.6 °F 30.1 in ESE 2.3 mph 2.3 mph 54 % 0 in 397.0 W/m2 CLR
09:01 46.8 °F 30.9 °F 30.1 in ESE 2.3 mph 2.3 mph 54 % 0 in 415.0 W/m2 CLR
09:06 47.1 °F 30.4 °F 30.1 in ESE 3.5 mph 3.5 mph 52 % 0 in 432.0 W/m2 CLR
09:11 47.5 °F 30.7 °F 30.1 in NE 5.8 mph 5.8 mph 52 % 0 in 450.0 W/m2 CLR
09:16 47.8 °F 30.6 °F 30.1 in East 3 mph 3 mph 51 % 0 in 466.0 W/m2 CLR
09:21 48.6 °F 30.7 °F 30.1 in South 3.5 mph 3.5 mph 50 % 0 in 482.0 W/m2 CLR
09:26 48.9 °F 30.7 °F 30.1 in East 3.5 mph 3.5 mph 49 % 0 in 497.0 W/m2 CLR
09:31 49.6 °F 30.7 °F 30.1 in South 3.5 mph 3.5 mph 48 % 0 in 512.0 W/m2 CLR
09:36 50.2 °F 30 °F 30.1 in NE 3.5 mph 3.5 mph 46 % 0 in 527.0 W/m2 CLR
09:41 50.5 °F 30 °F 30.1 in SSE 3.5 mph 3.5 mph 45 % 0 in 541.0 W/m2 CLR
09:46 50.5 °F 30 °F 30.1 in SSE 3 mph 3 mph 45 % 0 in 559.0 W/m2 CLR
09:51 50.9 °F 29.1 °F 30.1 in ESE 3.5 mph 3.5 mph 43 % 0 in 573.0 W/m2 CLR
09:57 51.6 °F 29.8 °F 30.1 in South 5.8 mph 5.8 mph 43 % 0 in 587.0 W/m2 CLR
10:02 52.2 °F 29.7 °F 30.1 in South 3.5 mph 3.5 mph 42 % 0 in 601.0 W/m2 CLR
10:07 52.5 °F 29.5 °F 30.1 in East 3.5 mph 3.5 mph 41 % 0 in 613.0 W/m2 CLR
10:12 53.1 °F 28.8 °F 30.1 in East 5.8 mph 5.8 mph 39 % 0 in 626.0 W/m2 CLR
10:17 53.2 °F 28.9 °F 30.1 in SE 8.1 mph 8.1 mph 39 % 0 in 640.0 W/m2 CLR
10:22 53.8 °F 29.5 °F 30.1 in East 4.6 mph 4.6 mph 39 % 0 in 650.0 W/m2 CLR
10:27 54.3 °F 29.1 °F 30.1 in ENE 4.6 mph 4.6 mph 38 % 0 in 663.0 W/m2 CLR
10:32 54.9 °F 28.2 °F 30.1 in East 4.6 mph 4.6 mph 36 % 0 in 671.0 W/m2 CLR
10:37 55.2 °F 28 °F 30.1 in SW 4.6 mph 4.6 mph 35 % 0 in 686.0 W/m2 CLR
10:42 55.6 °F 27.7 °F 30.1 in SSW 3 mph 3 mph 34 % 0 in 696.0 W/m2 CLR
10:47 55.9 °F 25.9 °F 30.1 in East 4.6 mph 4.6 mph 31 % 0 in 705.0 W/m2 CLR
10:48 56.1 °F 25.9 °F 30.1 in ESE 4.6 mph 4.6 mph 31 % 0 in 707.0 W/m2 CLR
10:52 56.3 °F 26.1 °F 30.1 in NE 3.5 mph 3.5 mph 31 % 0 in 714.0 W/m2 CLR
10:54 56.5 °F 26.2 °F 30.1 in East 3.5 mph 3.5 mph 31 % 0 in 715.0 W/m2 CLR
10:57 56.8 °F 27.1 °F 30.1 in South 3.5 mph 3.5 mph 32 % 0 in 722.0 W/m2 CLR
10:58 56.8 °F 27.1 °F 30.1 in East 3.5 mph 3.5 mph 32 % 0 in 724.0 W/m2 CLR
11:02 57 °F 26.8 °F 30.1 in NW 3.5 mph 3.5 mph 31 % 0 in 733.0 W/m2 CLR
11:07 57.4 °F 26.2 °F 30.1 in ENE 3.5 mph 3.5 mph 30 % 0 in 738.0 W/m2 CLR
11:12 57.6 °F 26.4 °F 30.1 in ENE 3.5 mph 3.5 mph 30 % 0 in 749.0 W/m2 CLR
11:18 57.7 °F 26.4 °F 30.1 in ENE 4.6 mph 4.6 mph 30 % 0 in 756.0 W/m2 CLR
11:23 57.9 °F 25.9 °F 30.1 in NE 3.5 mph 3.5 mph 29 % 0 in 761.0 W/m2 CLR
11:28 58.1 °F 25.2 °F 30.1 in WSW 4 mph 4 mph 28 % 0 in 770.0 W/m2 CLR
11:33 57.9 °F 24.3 °F 30.1 in SSW 3.5 mph 3.5 mph 27 % 0 in 775.0 W/m2 CLR
11:38 58.3 °F 24.3 °F 30.1 in East 2.3 mph 2.3 mph 27 % 0 in 777.0 W/m2 CLR
11:43 58.3 °F 25.2 °F 30.1 in SW 3.5 mph 3.5 mph 28 % 0 in 786.0 W/m2 CLR
11:48 58.6 °F 24.6 °F 30.1 in South 8 mph 8 mph 27 % 0 in 791.0 W/m2 CLR
11:53 58.8 °F 25 °F 30.1 in SW 6.9 mph 6.9 mph 27 % 0 in 793.0 W/m2 CLR
11:58 59 °F 25 °F 30.1 in SW 2.3 mph 2.3 mph 27 % 0 in 795.0 W/m2 CLR
12:03 59.5 °F 24.4 °F 30.1 in NE 4.6 mph 4.6 mph 26 % 0 in 798.0 W/m2 CLR
12:08 59.9 °F 25 °F 30.1 in SSW 3.5 mph 3.5 mph 26 % 0 in 802.0 W/m2 CLR
12:13 60.3 °F 25.2 °F 30.1 in East 6.9 mph 6.9 mph 26 % 0 in 803.0 W/m2 CLR
12:18 60.4 °F 24.4 °F 30.1 in South 3.5 mph 3.5 mph 25 % 0 in 802.0 W/m2 CLR
12:23 60.8 °F 24.6 °F 30.1 in SSW 1.2 mph 1.2 mph 25 % 0 in 803.0 W/m2 CLR
12:29 61.3 °F 25.2 °F 30.1 in SSW 6 mph 6 mph 25 % 0 in 809.0 W/m2 CLR
12:34 61.5 °F 24.3 °F 30.1 in SSW 4 mph 4 mph 24 % 0 in 810.0 W/m2 CLR
12:39 61.9 °F 25.5 °F 30.1 in West 3.5 mph 3.5 mph 25 % 0 in 805.0 W/m2 CLR
12:44 62.8 °F 25.3 °F 30.1 in SW 3.5 mph 3.5 mph 24 % 0 in 807.0 W/m2 CLR
12:49 63.7 °F 25.2 °F 30.1 in WNW 5.8 mph 5.8 mph 23 % 0 in 809.0 W/m2 CLR
12:54 64.4 °F 25.9 °F 30.1 in WNW 5.8 mph 5.8 mph 23 % 0 in 809.0 W/m2 CLR
12:59 64.2 °F 24.6 °F 30.1 in South 9.2 mph 9.2 mph 22 % 0 in 803.0 W/m2 CLR
13:04 63.3 °F 25 °F 30.1 in SE 3.5 mph 3.5 mph 23 % 0 in 802.0 W/m2 CLR
13:09 62.8 °F 23.4 °F 30.1 in WSW 6.9 mph 6.9 mph 22 % 0 in 796.0 W/m2 CLR
13:14 62.4 °F 24.1 °F 30 in SW 3.5 mph 3.5 mph 23 % 0 in 793.0 W/m2 CLR
13:19 63 °F 24.4 °F 30 in South 4.6 mph 4.6 mph 23 % 0 in 788.0 W/m2 CLR
13:24 64 °F 25.3 °F 30 in SW 5.8 mph 5.8 mph 23 % 0 in 786.0 W/m2 CLR
13:29 64.2 °F 25.7 °F 30 in West 8.1 mph 8.1 mph 23 % 0 in 780.0 W/m2 CLR
13:34 64.9 °F 25.2 °F 30 in SW 6 mph 6 mph 22 % 0 in 773.0 W/m2 CLR
13:39 65.3 °F 26.4 °F 30 in WNW 6.9 mph 6.9 mph 23 % 0 in 766.0 W/m2 CLR
13:40 65.5 °F 26.6 °F 30 in NNE 3.5 mph 3.5 mph 23 % 0 in 765.0 W/m2 CLR
13:45 65.8 °F 27 °F 30 in WSW 5 mph 8 mph 23 % 0 in 759.0 W/m2 CLR
13:50 66.4 °F 26.4 °F 30 in SW 7 mph 7 mph 22 % 0 in 754.0 W/m2 CLR
13:55 66.6 °F 25.3 °F 30 in WSW 9.2 mph 9.2 mph 21 % 0 in 747.0 W/m2 CLR
14:00 66.6 °F 25.3 °F 30 in SSW 8.1 mph 8.1 mph 21 % 0 in 738.0 W/m2 CLR
14:05 66.6 °F 25.3 °F 30 in SW 9.2 mph 9.2 mph 21 % 0 in 731.0 W/m2 CLR
14:10 66.4 °F 25.2 °F 30 in South 6.9 mph 6.9 mph 21 % 0 in 722.0 W/m2 CLR
14:15 65.5 °F 25.5 °F 30 in WSW 11.5 mph 11.5 mph 22 % 0 in 708.0 W/m2 CLR
14:20 65.1 °F 24.3 °F 30 in NW 10.4 mph 10.4 mph 21 % 0 in 700.0 W/m2 CLR
14:25 65.8 °F 24.6 °F 30 in WSW 9.2 mph 9.2 mph 21 % 0 in 693.0 W/m2 CLR
14:26 65.8 °F 24.6 °F 30 in NW 9.2 mph 9.2 mph 21 % 0 in 693.0 W/m2 CLR
14:30 66 °F 25 °F 30 in SSW 9.2 mph 9.2 mph 21 % 0 in 680.0 W/m2 CLR
14:35 65.7 °F 24.6 °F 30 in SSW 10.4 mph 10.4 mph 21 % 0 in 670.0 W/m2 CLR
14:36 65.7 °F 24.6 °F 30 in SW 8.1 mph 8.1 mph 21 % 0 in 668.0 W/m2 CLR
14:41 65.7 °F 24.6 °F 30 in SSW 6.9 mph 6.9 mph 21 % 0 in 657.0 W/m2 CLR
14:46 65.8 °F 24.8 °F 30 in WSW 7 mph 7 mph 21 % 0 in 645.0 W/m2 CLR
14:50 66.2 °F 23.9 °F 30 in SW 6.9 mph 6.9 mph 20 % 0 in 638.0 W/m2 CLR
14:51 66 °F 23.7 °F 30 in South 5.8 mph 5.8 mph 20 % 0 in 635.0 W/m2 CLR
14:56 65.8 °F 23.7 °F 30 in SW 11.5 mph 11.5 mph 20 % 0 in 621.0 W/m2 CLR
15:00 65.7 °F 23.5 °F 30 in WSW 5 mph 5 mph 20 % 0 in 613.0 W/m2 CLR
15:01 65.7 °F 23.5 °F 30 in SW 6.9 mph 6.9 mph 20 % 0 in 610.0 W/m2 CLR
15:06 65.8 °F 23.5 °F 30 in WNW 4.6 mph 4.6 mph 20 % 0 in 598.0 W/m2 CLR
15:11 66 °F 23.7 °F 30 in West 8.1 mph 8.1 mph 20 % 0 in 585.0 W/m2 CLR
15:16 66.4 °F 24.1 °F 30 in WSW 9.2 mph 9.2 mph 20 % 0 in 570.0 W/m2 CLR
15:21 66.4 °F 22.8 °F 30 in SW 3.5 mph 3.6 mph 19 % 0 in 555.0 W/m2 CLR
15:26 66.6 °F 23 °F 30 in SW 4.6 mph 4.6 mph 19 % 0 in 540.0 W/m2 CLR
15:31 66.6 °F 23 °F 30 in WNW 11.5 mph 11.5 mph 19 % 0 in 524.0 W/m2 CLR
15:36 66.7 °F 23.2 °F 30 in West 4.6 mph 4.6 mph 19 % 0 in 510.0 W/m2 CLR
15:40 66.7 °F 21.9 °F 30 in SSW 10.4 mph 10.4 mph 18 % 0 in 501.0 W/m2 CLR
15:41 66.7 °F 21.9 °F 30 in SW 10 mph 10 mph 18 % 0 in 496.0 W/m2 CLR
15:46 66.7 °F 21.9 °F 30 in WSW 9.2 mph 9.2 mph 18 % 0 in 480.0 W/m2 CLR
15:48 66.7 °F 21.7 °F 30 in WSW 11.5 mph 11.5 mph 18 % 0 in 475.0 W/m2 CLR
15:51 66.7 °F 20.5 °F 30 in WNW 10 mph 10 mph 17 % 0 in 466.0 W/m2 CLR
15:56 66.6 °F 20.3 °F 30 in NW 9.2 mph 9.2 mph 17 % 0 in 448.0 W/m2 CLR
16:01 66.4 °F 21.6 °F 30 in SW 11.5 mph 11.5 mph 18 % 0 in 432.0 W/m2 CLR
16:07 66 °F 21.4 °F 30 in West 12 mph 12 mph 18 % 0 in 417.0 W/m2 CLR
16:08 66 °F 19.9 °F 30 in SSW 11.5 mph 11.5 mph 17 % 0 in 410.0 W/m2 CLR
16:12 65.8 °F 19.8 °F 30 in SW 13.8 mph 13.8 mph 17 % 0 in 401.0 W/m2 CLR
16:17 65.5 °F 19.4 °F 30 in WSW 12.7 mph 12.7 mph 17 % 0 in 383.0 W/m2 CLR
16:20 65.1 °F 19.2 °F 30 in WSW 11.5 mph 11.5 mph 17 % 0 in 369.0 W/m2 CLR
16:22 65.1 °F 19.2 °F 30 in SW 13.8 mph 13.8 mph 17 % 0 in 367.0 W/m2 CLR
16:27 64.9 °F 17.6 °F 30 in South 11.5 mph 11.5 mph 16 % 0 in 350.0 W/m2 CLR
16:32 64.6 °F 18.7 °F 30 in SSW 11.5 mph 11.5 mph 17 % 0 in 330.0 W/m2 CLR
16:37 64.2 °F 18.5 °F 30 in NW 15 mph 15 mph 17 % 0 in 315.0 W/m2 CLR
16:42 64 °F 16.9 °F 30 in SW 10.4 mph 10.4 mph 16 % 0 in 297.0 W/m2 CLR
16:44 64 °F 16.9 °F 30 in SW 12 mph 12 mph 16 % 0 in 294.0 W/m2 CLR
16:47 64 °F 16.9 °F 30 in West 10.4 mph 10.4 mph 16 % 0 in 279.0 W/m2 CLR
16:48 64 °F 16.9 °F 30 in SSW 9.2 mph 9.2 mph 16 % 0 in 276.0 W/m2 CLR
16:52 64 °F 16.9 °F 30 in SW 5 mph 5 mph 16 % 0 in 258.0 W/m2 CLR
16:56 63.9 °F 16.9 °F 30 in West 11.5 mph 11.5 mph 16 % 0 in 239.0 W/m2 CLR
16:57 63.9 °F 15.3 °F 30 in SW 11.5 mph 11.5 mph 15 % 0 in 234.0 W/m2 CLR
17:02 63.3 °F 14.7 °F 30 in SW 8.1 mph 8.1 mph 15 % 0 in 211.0 W/m2 CLR
17:07 63 °F 14.5 °F 30 in WSW 7 mph 7 mph 15 % 0 in 192.0 W/m2 CLR
17:12 62.4 °F 12.6 °F 30 in NW 13.8 mph 13.8 mph 14 % 0 in 169.0 W/m2 CLR
17:17 62.2 °F 12.4 °F 30 in West 6.9 mph 6.9 mph 14 % 0 in 77.0 W/m2 CLR
17:22 61.9 °F 12 °F 30 in West 10.4 mph 10.4 mph 14 % 0 in 25.0 W/m2 CLR
17:27 61.3 °F 11.7 °F 30 in SSW 11.5 mph 11.5 mph 14 % 0 in 23.0 W/m2 CLR
17:33 61 °F 12.9 °F 30 in SW 12.7 mph 12.7 mph 15 % 0 in 21.0 W/m2 CLR
17:38 60.4 °F 14 °F 30 in South 8.1 mph 8.1 mph 16 % 0 in 21.0 W/m2 CLR
17:43 60.3 °F 15.3 °F 30 in SSW 16.1 mph 16.1 mph 17 % 0 in 19.0 W/m2 CLR
17:48 59.9 °F 17.4 °F 30 in WSW 5.8 mph 5.8 mph 19 % 0 in 18.0 W/m2 CLR
17:53 59.7 °F 18.5 °F 30 in West 12 mph 12 mph 20 % 0 in 14.0 W/m2 CLR
17:58 59.4 °F 18.1 °F 30 in SW 10.4 mph 10.4 mph 20 % 0 in 12.0 W/m2 CLR
18:03 59 °F 19 °F 30 in SW 8.1 mph 8.1 mph 21 % 0 in 11.0 W/m2 CLR
18:08 58.6 °F 19.9 °F 30 in SW 11.5 mph 11.5 mph 22 % 0 in 9.0 W/m2 CLR
18:13 58.5 °F 19.8 °F 30 in NW 4.6 mph 4.6 mph 22 % 0 in 5.0 W/m2 CLR
18:18 58.3 °F 20.5 °F 30 in SW 11.5 mph 11.5 mph 23 % 0 in 0.0 W/m2 CLR
18:23 57.9 °F 20.5 °F 30 in SW 11 mph 11 mph 23 % 0 in 0.0 W/m2 CLR
18:28 57.7 °F 21 °F 30 in West 8.1 mph 8.1 mph 24 % 0 in 0.0 W/m2 CLR
18:33 57.6 °F 25.5 °F 30 in West 5 mph 5 mph 29 % 0 in 0.0 W/m2 CLR
18:38 56.7 °F 28.6 °F 30 in ENE 3.5 mph 3.5 mph 34 % 0 in 0.0 W/m2 CLR
18:43 56.1 °F 28.8 °F 30 in NNW 4.6 mph 4.6 mph 35 % 0 in 0.0 W/m2 CLR
18:48 55.4 °F 28.9 °F 30 in NE 4.6 mph 4.6 mph 36 % 0 in 0.0 W/m2 CLR
18:53 54.9 °F 29.1 °F 30 in North 2.3 mph 2.3 mph 37 % 0 in 0.0 W/m2 CLR
18:58 54.7 °F 29.5 °F 30 in West 3.5 mph 3.5 mph 38 % 0 in 0.0 W/m2 CLR
19:03 54.3 °F 29.1 °F 30 in NW 2 mph 2 mph 38 % 0 in 0.0 W/m2 CLR
19:09 54 °F 29.7 °F 30 in NW 3.5 mph 3.5 mph 39 % 0 in 0.0 W/m2 CLR
19:14 53.8 °F 29.3 °F 30 in WNW 6.9 mph 6.9 mph 39 % 0 in 0.0 W/m2 CLR
19:19 53.2 °F 28.9 °F 30 in NNW 5.8 mph 5.8 mph 39 % 0 in 0.0 W/m2 CLR
19:24 52.9 °F 28 °F 30 in NW 3.5 mph 3.5 mph 38 % 0 in 0.0 W/m2 CLR
19:29 52.7 °F 27.9 °F 30.1 in WNW 3.5 mph 3.5 mph 38 % 0 in 0.0 W/m2 CLR
19:34 52.3 °F 27.5 °F 30.1 in NW 3.5 mph 3.5 mph 38 % 0 in 0.0 W/m2 CLR
19:39 52.3 °F 28 °F 30.1 in NW 4.6 mph 4.6 mph 39 % 0 in 0.0 W/m2 CLR
19:44 52 °F 27.9 °F 30.1 in WNW 2.3 mph 2.3 mph 39 % 0 in 0.0 W/m2 CLR
19:49 51.8 °F 27.7 °F 30.1 in NNW 8.1 mph 8.1 mph 39 % 0 in 0.0 W/m2 CLR
19:54 51.6 °F 27.3 °F 30.1 in NE 3.5 mph 3.5 mph 39 % 0 in 0.0 W/m2 CLR
19:59 51.4 °F 27.9 °F 30.1 in NW 3.5 mph 3.5 mph 40 % 0 in 0.0 W/m2 CLR
20:04 51.3 °F 27.9 °F 30.1 in NW 1.2 mph 1.2 mph 40 % 0 in 0.0 W/m2 CLR
20:09 51.1 °F 28.2 °F 30.1 in WNW 3.5 mph 3.5 mph 41 % 0 in 0.0 W/m2 CLR
20:14 50.9 °F 28 °F 30.1 in NNW 1.2 mph 1.2 mph 41 % 0 in 0.0 W/m2 CLR
20:19 50.7 °F 27.9 °F 30.1 in North 3.5 mph 3.5 mph 41 % 0 in 0.0 W/m2 CLR
20:24 50.5 °F 28.2 °F 30.1 in WNW 2.3 mph 2.3 mph 42 % 0 in 0.0 W/m2 CLR
20:29 50.5 °F 28.2 °F 30.1 in NW 3.5 mph 3.5 mph 42 % 0 in 0.0 W/m2 CLR
20:34 50.4 °F 28 °F 30.1 in North 2.3 mph 2.3 mph 42 % 0 in 0.0 W/m2 CLR
20:39 50.2 °F 28.4 °F 30.1 in WNW 2.3 mph 2.3 mph 43 % 0 in 0.0 W/m2 CLR
20:44 50 °F 28.4 °F 30.1 in NW 3.5 mph 3.5 mph 43 % 0 in 0.0 W/m2 CLR
20:50 49.8 °F 28.8 °F 30.1 in NW 3.5 mph 3.5 mph 44 % 0 in 0.0 W/m2 CLR
20:55 49.6 °F 28.6 °F 30.1 in NNW 1.2 mph 1.2 mph 44 % 0 in 0.0 W/m2 CLR
Countryside Manor, Tucson, AZ, USA
Compliments of Weather Underground - 4.5 mb